< < Back
Terminal Aerodrome Forecast


Current Version              Previous Versions:   1  2  3  4  5  6  7  8  9  

Terminal Aerodrome Forecast

510
FTUS42 KFFC 172100 AAA
TAFCSG
TAF AMD
KCSG 172148Z 1722/1818 10009G16KT P6SM BKN040
     FM180600 09009KT P6SM BKN025 PROB30 1807/1810 -SHRA BKN015
     FM181000 08009KT 6SM SHRA OVC020
     FM181400 07010KT 6SM -RA OVC008=



Latest METAR

697
SAUS70 KWBC 181000
MTRCSG
METAR KCSG 180951Z AUTO 09010KT 4SM RA BR FEW060 BKN075 OVC090 12/10
A3023 RMK AO2 SLP235 P0016 T01170100


USA.gov is the U.S. government's official web portal to all federal, state and local government web resources and services.